Time;durP1;ratioP1;P1;durP2;ratioP2;P2;SDS_P1;SDS_P2;PMS_P1;PMS_P2;Temp;Humidity;BMP_temperature;BMP_pressure;BME280_temperature;BME280_humidity;BME280_pressure;Samples;Min_cycle;Max_cycle;Signal;HPM_P1;HPM_P2
2021/06/21 00:01:54;;;;;;;5.18;3.08;;;;;;;;;;4326305;33;20052;-77
2021/06/21 00:04:20;;;;;;;5.43;3.10;;;;;;;;;;4325867;33;20040;-78
2021/06/21 00:06:47;;;;;;;4.68;3.50;;;;;;;;;;4325888;33;20428;-79
2021/06/21 00:09:13;;;;;;;4.65;3.40;;;;;;;;;;4325247;33;20078;-77
2021/06/21 00:11:39;;;;;;;4.53;3.70;;;;;;;;;;4325233;33;20055;-79
2021/06/21 00:14:05;;;;;;;5.53;3.45;;;;;;;;;;4324415;33;20036;-79
2021/06/21 00:16:31;;;;;;;7.43;3.50;;;;;;;;;;4325212;33;20401;-79
2021/06/21 00:18:58;;;;;;;5.57;3.70;;;;;;;;;;4324758;33;20475;-78
2021/06/21 00:21:24;;;;;;;6.43;3.60;;;;;;;;;;4324771;33;20056;-77
2021/06/21 00:23:50;;;;;;;4.72;3.80;;;;;;;;;;4310575;33;20134;-78
2021/06/21 00:26:16;;;;;;;6.45;3.80;;;;;;;;;;4324962;33;20079;-79
2021/06/21 00:28:42;;;;;;;5.45;3.40;;;;;;;;;;4325510;33;20097;-77
2021/06/21 00:31:08;;;;;;;6.12;3.58;;;;;;;;;;4309030;33;20114;-78
2021/06/21 00:33:35;;;;;;;6.12;3.45;;;;;;;;;;4319913;33;20151;-80
2021/06/21 00:36:01;;;;;;;6.20;3.65;;;;;;;;;;4324499;33;20064;-78
2021/06/21 00:38:27;;;;;;;8.63;3.50;;;;;;;;;;4326120;33;20389;-78
2021/06/21 00:40:53;;;;;;;7.20;3.65;;;;;;;;;;4324875;33;20040;-78
2021/06/21 00:43:19;;;;;;;4.18;3.25;;;;;;;;;;4326084;33;20047;-79
2021/06/21 00:45:45;;;;;;;3.85;3.22;;;;;;;;;;4311116;33;20621;-78
2021/06/21 00:48:12;;;;;;;4.70;3.10;;;;;;;;;;4324698;33;20368;-81
2021/06/21 00:50:39;;;;;;;5.68;3.47;;;;;;;;;;4326056;33;20040;-78
2021/06/21 00:53:05;;;;;;;9.68;3.35;;;;;;;;;;4324599;33;20044;-77
2021/06/21 00:55:31;;;;;;;4.07;3.10;;;;;;;;;;4323986;33;20044;-77
2021/06/21 00:57:57;;;;;;;7.57;3.70;;;;;;;;;;4325808;33;20056;-78
2021/06/21 01:00:25;;;;;;;5.45;3.12;;;;;;;;;;4326143;33;20032;-77
2021/06/21 01:02:51;;;;;;;6.82;3.25;;;;;;;;;;4330769;33;20036;-78
2021/06/21 01:05:28;;;;;;;6.85;3.17;;;;;;;;;;4329232;33;20107;-78
2021/06/21 01:07:54;;;;;;;10.35;3.67;;;;;;;;;;4328959;33;20071;-78
2021/06/21 01:10:22;;;;;;;9.10;2.97;;;;;;;;;;4330187;33;20070;-78
2021/06/21 01:12:48;;;;;;;6.62;2.95;;;;;;;;;;4330775;33;20043;-78
2021/06/21 01:15:23;;;;;;;7.57;3.10;;;;;;;;;;4315810;33;20048;-78
2021/06/21 01:17:52;;;;;;;9.32;3.65;;;;;;;;;;4329163;33;20040;-78
2021/06/21 01:20:34;;;;;;;5.87;3.45;;;;;;;;;;4329896;33;20094;-78
2021/06/21 01:23:03;;;;;;;6.00;3.47;;;;;;;;;;4329203;33;20086;-78
2021/06/21 01:25:29;;;;;;;4.55;2.62;;;;;;;;;;4315392;33;20586;-78
2021/06/21 01:27:58;;;;;;;5.15;3.03;;;;;;;;;;4329830;33;20055;-78
2021/06/21 01:30:29;;;;;;;16.15;3.60;;;;;;;;;;4328991;33;20075;-78
2021/06/21 01:33:00;;;;;;;6.03;3.20;;;;;;;;;;4314214;33;20091;-77
2021/06/21 01:35:26;;;;;;;7.72;3.75;;;;;;;;;;4324546;33;20368;-79
2021/06/21 01:37:54;;;;;;;5.85;3.47;;;;;;;;;;4324476;33;20094;-77
2021/06/21 01:40:21;;;;;;;7.93;4.25;;;;;;;;;;4324803;33;20039;-79
2021/06/21 01:42:51;;;;;;;5.10;3.55;;;;;;;;;;4327674;33;20062;-78
2021/06/21 01:45:18;;;;;;;5.12;3.97;;;;;;;;;;4329160;33;20070;-78
2021/06/21 01:47:47;;;;;;;6.60;3.83;;;;;;;;;;4328824;33;20436;-81
2021/06/21 01:50:15;;;;;;;6.65;3.78;;;;;;;;;;4330384;33;20044;-77
2021/06/21 01:52:43;;;;;;;8.13;4.35;;;;;;;;;;4329186;33;20035;-78
2021/06/21 01:55:10;;;;;;;5.32;4.22;;;;;;;;;;4329756;33;20102;-77
2021/06/21 01:57:37;;;;;;;7.85;4.07;;;;;;;;;;4329562;33;20048;-78
2021/06/21 02:00:09;;;;;;;6.75;4.18;;;;;;;;;;4328540;33;20093;-78
2021/06/21 02:02:36;;;;;;;7.30;4.30;;;;;;;;;;4330565;33;20083;-78
2021/06/21 02:05:04;;;;;;;7.55;4.12;;;;;;;;;;4329429;33;20052;-78
2021/06/21 02:07:32;;;;;;;13.43;4.62;;;;;;;;;;4330102;33;20377;-77
2021/06/21 02:09:59;;;;;;;10.63;4.30;;;;;;;;;;4327576;33;20047;-78
2021/06/21 02:12:26;;;;;;;6.95;4.05;;;;;;;;;;4327772;33;20070;-78
2021/06/21 02:14:52;;;;;;;7.72;4.37;;;;;;;;;;4327489;33;20056;-77
2021/06/21 02:17:23;;;;;;;8.68;4.18;;;;;;;;;;4328056;33;20496;-78
2021/06/21 02:19:55;;;;;;;12.98;4.43;;;;;;;;;;4327057;33;20102;-77
2021/06/21 02:22:25;;;;;;;6.57;3.92;;;;;;;;;;4318197;33;20404;-77
2021/06/21 02:24:53;;;;;;;14.65;4.90;;;;;;;;;;4327574;33;20044;-78
2021/06/21 02:27:20;;;;;;;24.45;5.30;;;;;;;;;;4326267;33;20112;-77
2021/06/21 02:29:47;;;;;;;14.87;4.87;;;;;;;;;;4326432;33;20105;-78
2021/06/21 02:32:14;;;;;;;15.65;4.22;;;;;;;;;;4331945;33;20473;-77
2021/06/21 02:34:40;;;;;;;24.37;5.03;;;;;;;;;;4317998;33;20051;-80
2021/06/21 02:37:06;;;;;;;18.58;5.30;;;;;;;;;;4325408;33;20076;-79
2021/06/21 02:39:32;;;;;;;17.62;4.70;;;;;;;;;;4327893;33;20074;-78
2021/06/21 02:41:59;;;;;;;20.75;5.55;;;;;;;;;;4327199;33;20056;-78
2021/06/21 02:44:25;;;;;;;20.12;4.90;;;;;;;;;;4326771;33;20110;-78
2021/06/21 02:46:51;;;;;;;15.75;4.65;;;;;;;;;;4326703;33;20040;-78
2021/06/21 02:49:17;;;;;;;13.52;4.00;;;;;;;;;;4325629;33;20103;-81
2021/06/21 02:52:10;;;;;;;14.20;4.60;;;;;;;;;;4326491;33;20067;-78
2021/06/21 02:55:06;;;;;;;16.65;4.40;;;;;;;;;;4324961;33;20090;-78
2021/06/21 02:57:34;;;;;;;16.77;3.97;;;;;;;;;;4326149;33;20483;-78
2021/06/21 03:00:01;;;;;;;14.18;4.37;;;;;;;;;;4327604;33;20789;-77
2021/06/21 03:02:28;;;;;;;20.48;5.35;;;;;;;;;;4316988;33;20103;-77
2021/06/21 03:04:55;;;;;;;14.45;4.15;;;;;;;;;;4316314;33;20677;-77
2021/06/21 03:07:23;;;;;;;20.17;5.10;;;;;;;;;;4321645;33;20099;-78
2021/06/21 03:09:49;;;;;;;17.35;5.37;;;;;;;;;;4321631;33;20070;-77
2021/06/21 03:12:18;;;;;;;15.82;4.90;;;;;;;;;;4320474;33;20036;-78
2021/06/21 03:14:46;;;;;;;14.27;5.03;;;;;;;;;;4319926;33;20102;-77
2021/06/21 03:17:13;;;;;;;15.05;5.15;;;;;;;;;;4320938;33;20114;-77
2021/06/21 03:19:39;;;;;;;14.35;5.15;;;;;;;;;;4308994;33;20059;-78
2021/06/21 03:22:06;;;;;;;12.68;4.18;;;;;;;;;;4308033;33;20048;-79
2021/06/21 03:24:32;;;;;;;17.02;5.22;;;;;;;;;;4319811;33;20040;-77
2021/06/21 03:26:58;;;;;;;15.88;5.53;;;;;;;;;;4321944;33;20056;-78
2021/06/21 03:29:25;;;;;;;12.60;4.75;;;;;;;;;;4319821;33;20067;-77
2021/06/21 03:31:52;;;;;;;16.55;5.55;;;;;;;;;;4321730;33;20040;-78
2021/06/21 03:34:19;;;;;;;23.92;5.40;;;;;;;;;;4322144;33;20062;-78
2021/06/21 03:36:46;;;;;;;21.45;5.85;;;;;;;;;;4320613;33;20067;-77
2021/06/21 03:39:12;;;;;;;21.85;4.72;;;;;;;;;;4319371;33;20119;-77
2021/06/21 03:41:38;;;;;;;14.15;4.32;;;;;;;;;;4321645;33;20036;-78
2021/06/21 03:44:05;;;;;;;14.63;4.95;;;;;;;;;;4322190;33;20123;-77
2021/06/21 03:46:31;;;;;;;11.98;4.45;;;;;;;;;;4321886;33;20420;-78
2021/06/21 03:48:57;;;;;;;12.52;4.40;;;;;;;;;;4320633;33;20071;-77
2021/06/21 03:51:24;;;;;;;16.10;5.12;;;;;;;;;;4322096;33;20087;-77
2021/06/21 03:53:50;;;;;;;15.50;4.60;;;;;;;;;;4320615;33;20047;-77
2021/06/21 03:56:16;;;;;;;14.40;4.95;;;;;;;;;;4322294;33;20138;-77
2021/06/21 03:58:45;;;;;;;18.50;4.75;;;;;;;;;;4321354;33;20056;-76
2021/06/21 04:01:11;;;;;;;11.68;4.37;;;;;;;;;;4319665;33;20070;-77
2021/06/21 04:03:37;;;;;;;22.98;5.65;;;;;;;;;;4321038;33;20047;-77
2021/06/21 04:06:03;;;;;;;13.93;5.00;;;;;;;;;;4320205;33;20048;-77
2021/06/21 04:08:30;;;;;;;15.80;5.18;;;;;;;;;;4320659;33;20048;-77
2021/06/21 04:10:56;;;;;;;15.55;4.72;;;;;;;;;;4320518;33;20074;-77
2021/06/21 04:13:22;;;;;;;14.50;4.72;;;;;;;;;;4320203;33;20024;-77
2021/06/21 04:15:48;;;;;;;10.48;4.93;;;;;;;;;;4320120;33;20033;-77
2021/06/21 04:18:16;;;;;;;11.48;4.30;;;;;;;;;;4319864;33;20090;-77
2021/06/21 04:20:43;;;;;;;18.35;4.80;;;;;;;;;;4313801;33;20401;-77
2021/06/21 04:23:10;;;;;;;16.25;5.10;;;;;;;;;;4321731;33;20062;-77
2021/06/21 04:25:36;;;;;;;9.63;4.28;;;;;;;;;;4321307;33;20068;-77
2021/06/21 04:28:03;;;;;;;18.27;5.18;;;;;;;;;;4319800;33;20071;-77
2021/06/21 04:30:30;;;;;;;17.20;5.07;;;;;;;;;;4320289;33;20036;-77
2021/06/21 04:32:56;;;;;;;14.50;5.35;;;;;;;;;;4321000;33;20079;-77
2021/06/21 04:35:23;;;;;;;16.67;5.55;;;;;;;;;;4319477;33;20478;-77
2021/06/21 04:37:50;;;;;;;18.92;5.10;;;;;;;;;;4306308;33;20035;-77
2021/06/21 04:40:20;;;;;;;18.92;5.32;;;;;;;;;;4318786;33;20028;-77
2021/06/21 04:42:47;;;;;;;18.90;5.70;;;;;;;;;;4320944;33;20071;-77
2021/06/21 04:45:14;;;;;;;14.77;4.95;;;;;;;;;;4321109;33;20055;-77
2021/06/21 04:47:40;;;;;;;23.90;5.75;;;;;;;;;;4319957;33;20094;-77
2021/06/21 04:50:09;;;;;;;18.75;5.28;;;;;;;;;;4319162;33;20146;-77
2021/06/21 04:52:36;;;;;;;23.38;5.30;;;;;;;;;;4320561;33;20077;-77
2021/06/21 04:55:03;;;;;;;13.48;4.85;;;;;;;;;;4319613;33;20036;-77
2021/06/21 04:57:30;;;;;;;16.62;4.93;;;;;;;;;;4321226;33;20259;-76
2021/06/21 04:59:56;;;;;;;17.33;4.97;;;;;;;;;;4321060;33;20127;-77
2021/06/21 05:02:22;;;;;;;16.90;4.72;;;;;;;;;;4321212;33;20483;-77
2021/06/21 05:04:49;;;;;;;13.50;4.65;;;;;;;;;;4319793;33;20044;-77
2021/06/21 05:07:15;;;;;;;18.92;5.55;;;;;;;;;;4320367;33;20094;-76
2021/06/21 05:09:42;;;;;;;20.12;6.00;;;;;;;;;;4319791;33;20032;-77
2021/06/21 05:12:09;;;;;;;13.88;4.80;;;;;;;;;;4320064;33;20040;-77
2021/06/21 05:14:36;;;;;;;14.85;4.90;;;;;;;;;;4319089;33;20040;-77
2021/06/21 05:17:03;;;;;;;14.98;4.53;;;;;;;;;;4320041;33;20044;-77
2021/06/21 05:19:29;;;;;;;13.73;4.82;;;;;;;;;;4319810;33;20041;-77
2021/06/21 05:21:55;;;;;;;15.48;4.47;;;;;;;;;;4321353;33;20130;-77
2021/06/21 05:24:21;;;;;;;15.70;5.53;;;;;;;;;;4318572;33;20052;-77
2021/06/21 05:26:47;;;;;;;14.10;4.40;;;;;;;;;;4320932;33;20103;-77
2021/06/21 05:29:13;;;;;;;17.02;5.15;;;;;;;;;;4320999;33;20052;-77
2021/06/21 05:31:40;;;;;;;17.05;4.82;;;;;;;;;;4319887;33;20052;-77
2021/06/21 05:34:07;;;;;;;11.65;4.18;;;;;;;;;;4318290;33;20138;-77
2021/06/21 05:36:33;;;;;;;14.57;4.80;;;;;;;;;;4306310;33;20443;-77
2021/06/21 05:38:59;;;;;;;17.45;4.20;;;;;;;;;;4321053;33;20059;-77
2021/06/21 05:41:25;;;;;;;21.17;4.80;;;;;;;;;;4319628;33;20102;-78
2021/06/21 05:43:52;;;;;;;15.43;4.30;;;;;;;;;;4306091;33;20031;-78
2021/06/21 05:46:18;;;;;;;14.57;5.10;;;;;;;;;;4318867;33;20064;-78
2021/06/21 05:48:44;;;;;;;17.45;4.05;;;;;;;;;;4321010;33;20342;-77
2021/06/21 05:51:10;;;;;;;15.77;4.65;;;;;;;;;;4320263;33;20071;-78
2021/06/21 05:53:36;;;;;;;13.05;4.25;;;;;;;;;;4321579;33;20197;-78
2021/06/21 05:56:03;;;;;;;19.17;5.15;;;;;;;;;;4321492;33;20122;-78
2021/06/21 05:58:29;;;;;;;14.93;4.60;;;;;;;;;;4315273;33;20028;-76
2021/06/21 06:00:55;;;;;;;13.62;4.05;;;;;;;;;;4323149;33;20066;-76
2021/06/21 06:03:21;;;;;;;18.00;4.57;;;;;;;;;;4321240;33;20620;-75
2021/06/21 06:05:48;;;;;;;16.42;4.45;;;;;;;;;;4322416;33;20035;-75
2021/06/21 06:08:14;;;;;;;17.87;4.90;;;;;;;;;;4320119;33;20052;-76
2021/06/21 06:10:40;;;;;;;14.07;4.20;;;;;;;;;;4319171;33;20110;-76
2021/06/21 06:13:07;;;;;;;18.25;5.10;;;;;;;;;;4320914;33;20141;-76
2021/06/21 06:15:33;;;;;;;12.73;4.57;;;;;;;;;;4321554;33;20086;-76
2021/06/21 06:17:59;;;;;;;18.15;5.00;;;;;;;;;;4319935;33;20032;-75
2021/06/21 06:20:26;;;;;;;23.42;5.10;;;;;;;;;;4320931;33;20090;-75
2021/06/21 06:22:52;;;;;;;15.18;4.80;;;;;;;;;;4321615;33;20273;-75
2021/06/21 06:25:18;;;;;;;21.23;4.93;;;;;;;;;;4321212;33;20060;-75
2021/06/21 06:27:45;;;;;;;24.17;4.65;;;;;;;;;;4307952;33;20048;-74
2021/06/21 06:30:12;;;;;;;19.42;5.05;;;;;;;;;;4323016;33;20036;-75
2021/06/21 06:32:39;;;;;;;20.42;5.15;;;;;;;;;;4322682;33;20058;-75
2021/06/21 06:35:07;;;;;;;16.73;4.93;;;;;;;;;;4322134;33;20754;-74
2021/06/21 06:37:33;;;;;;;24.27;6.05;;;;;;;;;;4320516;33;20319;-76
2021/06/21 06:40:00;;;;;;;21.37;5.60;;;;;;;;;;4321764;33;20040;-80
2021/06/21 06:42:26;;;;;;;20.48;5.70;;;;;;;;;;4322642;33;20472;-75
2021/06/21 06:44:52;;;;;;;23.08;5.85;;;;;;;;;;4311484;33;20099;-75
2021/06/21 06:47:18;;;;;;;16.37;5.57;;;;;;;;;;4310065;33;20041;-76
2021/06/21 06:49:45;;;;;;;17.40;5.45;;;;;;;;;;4308023;33;20543;-75
2021/06/21 06:52:13;;;;;;;19.50;5.53;;;;;;;;;;4307004;33;20409;-75
2021/06/21 06:56:58;;;;;;;15.85;5.53;;;;;;;;;;4309219;33;20466;-75
2021/06/21 06:57:35;;;;;;;26.02;5.85;;;;;;;;;;4306005;33;20335;-75
2021/06/21 07:00:01;;;;;;;18.98;5.05;;;;;;;;;;4314223;33;20079;-75
2021/06/21 07:02:27;;;;;;;18.77;5.68;;;;;;;;;;4308958;33;20063;-75
2021/06/21 07:04:53;;;;;;;24.20;5.62;;;;;;;;;;4313743;33;20067;-75
2021/06/21 07:07:20;;;;;;;11.95;3.87;;;;;;;;;;4309186;33;20045;-75
2021/06/21 07:09:46;;;;;;;15.75;4.45;;;;;;;;;;4312189;33;20071;-75
2021/06/21 07:12:13;;;;;;;16.37;4.35;;;;;;;;;;4307535;33;20087;-82
2021/06/21 07:14:39;;;;;;;15.05;3.30;;;;;;;;;;4306663;33;20033;-74
2021/06/21 07:17:05;;;;;;;19.02;3.85;;;;;;;;;;4315564;33;20120;-74
2021/06/21 07:19:31;;;;;;;15.95;3.47;;;;;;;;;;4308094;33;20074;-73
2021/06/21 07:21:57;;;;;;;20.55;4.40;;;;;;;;;;4309018;33;20091;-73
2021/06/21 07:24:24;;;;;;;14.07;3.45;;;;;;;;;;4306427;33;20115;-73
2021/06/21 07:26:51;;;;;;;17.70;3.55;;;;;;;;;;4311346;33;20036;-75
2021/06/21 07:29:18;;;;;;;24.25;4.40;;;;;;;;;;4309165;33;20465;-74
2021/06/21 07:31:44;;;;;;;25.08;6.68;;;;;;;;;;4315323;33;20091;-73
2021/06/21 07:34:11;;;;;;;30.75;7.62;;;;;;;;;;4315987;33;20056;-72
2021/06/21 07:36:37;;;;;;;27.33;7.70;;;;;;;;;;4308269;33;20504;-77
2021/06/21 07:39:04;;;;;;;28.62;8.63;;;;;;;;;;4307453;33;20162;-73
2021/06/21 07:41:31;;;;;;;24.17;8.63;;;;;;;;;;4306809;33;20055;-73
2021/06/21 07:43:57;;;;;;;21.67;7.45;;;;;;;;;;4312082;33;20105;-73
2021/06/21 07:46:23;;;;;;;28.45;8.70;;;;;;;;;;4320588;33;20062;-72
2021/06/21 07:48:49;;;;;;;25.65;9.13;;;;;;;;;;4321206;33;20039;-72
2021/06/21 07:51:16;;;;;;;22.17;9.27;;;;;;;;;;4315185;33;20456;-72
2021/06/21 07:53:43;;;;;;;24.05;8.70;;;;;;;;;;4307568;33;20070;-72
2021/06/21 07:56:10;;;;;;;24.85;8.80;;;;;;;;;;4313523;33;20113;-72
2021/06/21 07:58:41;;;;;;;29.00;9.82;;;;;;;;;;4306925;33;20110;-73
2021/06/21 08:01:08;;;;;;;31.73;8.85;;;;;;;;;;4305061;33;20076;-79
2021/06/21 08:03:35;;;;;;;30.92;8.98;;;;;;;;;;4307017;33;20028;-72
2021/06/21 08:06:02;;;;;;;30.00;10.15;;;;;;;;;;4308226;33;20040;-74
2021/06/21 08:08:29;;;;;;;28.33;9.43;;;;;;;;;;4314561;33;20056;-74
2021/06/21 08:10:56;;;;;;;26.73;8.48;;;;;;;;;;4306345;33;20032;-75
2021/06/21 08:13:22;;;;;;;23.20;7.22;;;;;;;;;;4299314;33;137271;-74
2021/06/21 08:15:49;;;;;;;24.70;7.57;;;;;;;;;;4304167;33;20063;-74
2021/06/21 08:18:15;;;;;;;27.17;7.50;;;;;;;;;;4307926;33;20051;-74
2021/06/21 08:20:44;;;;;;;20.60;6.47;;;;;;;;;;4308784;33;20091;-74
2021/06/21 08:23:14;;;;;;;24.77;6.22;;;;;;;;;;4306477;33;20036;-74
2021/06/21 08:25:41;;;;;;;25.10;7.25;;;;;;;;;;4295363;33;20283;-74
2021/06/21 08:28:07;;;;;;;26.75;8.20;;;;;;;;;;4311247;33;20091;-74
2021/06/21 08:30:33;;;;;;;20.10;6.35;;;;;;;;;;4307925;33;20064;-74
2021/06/21 08:33:00;;;;;;;19.92;5.80;;;;;;;;;;4309254;33;20025;-74
2021/06/21 08:35:26;;;;;;;18.80;5.20;;;;;;;;;;4310425;33;20110;-74
2021/06/21 08:37:53;;;;;;;17.98;4.40;;;;;;;;;;4318556;33;20055;-74
2021/06/21 08:40:21;;;;;;;15.38;4.87;;;;;;;;;;4307667;33;20074;-74
2021/06/21 08:42:47;;;;;;;19.10;4.22;;;;;;;;;;4304587;33;20064;-74
2021/06/21 08:45:14;;;;;;;17.02;4.25;;;;;;;;;;4306441;33;20421;-74
2021/06/21 08:47:40;;;;;;;21.50;4.87;;;;;;;;;;4306618;33;20079;-74
2021/06/21 08:50:08;;;;;;;19.77;5.10;;;;;;;;;;4304977;33;20472;-74
2021/06/21 08:52:35;;;;;;;21.92;4.32;;;;;;;;;;4297636;33;20082;-74
2021/06/21 08:55:04;;;;;;;19.25;4.68;;;;;;;;;;4312527;33;20033;-74
2021/06/21 08:57:31;;;;;;;19.35;4.68;;;;;;;;;;4306453;33;20395;-74
2021/06/21 08:59:57;;;;;;;15.60;4.85;;;;;;;;;;4305617;33;20062;-74
2021/06/21 09:02:24;;;;;;;16.33;4.45;;;;;;;;;;4306408;33;20410;-74
2021/06/21 09:04:50;;;;;;;16.48;4.72;;;;;;;;;;4306537;33;20049;-74
2021/06/21 09:07:21;;;;;;;19.27;5.22;;;;;;;;;;4304425;33;20593;-74
2021/06/21 09:09:48;;;;;;;26.52;6.18;;;;;;;;;;4306238;33;20063;-74
2021/06/21 09:12:19;;;;;;;18.83;4.65;;;;;;;;;;4292136;33;20088;-74
2021/06/21 09:14:47;;;;;;;16.10;4.55;;;;;;;;;;4306591;33;20658;-75
2021/06/21 09:17:13;;;;;;;19.48;4.60;;;;;;;;;;4312977;33;20063;-74
2021/06/21 09:19:54;;;;;;;19.62;4.50;;;;;;;;;;4318824;33;20384;-74
2021/06/21 09:22:41;;;;;;;18.90;4.72;;;;;;;;;;4321851;33;20039;-73
2021/06/21 09:25:22;;;;;;;22.50;5.45;;;;;;;;;;4322690;33;20142;-74
2021/06/21 09:27:57;;;;;;;23.98;4.60;;;;;;;;;;4308904;33;20431;-75
2021/06/21 09:30:24;;;;;;;19.00;4.22;;;;;;;;;;4318837;33;20098;-74
2021/06/21 09:32:54;;;;;;;21.92;5.22;;;;;;;;;;4321195;33;20043;-73
2021/06/21 09:35:26;;;;;;;19.00;4.28;;;;;;;;;;4310279;33;20076;-76
2021/06/21 09:37:53;;;;;;;17.55;4.53;;;;;;;;;;4308492;33;20048;-73
2021/06/21 09:40:27;;;;;;;15.75;4.47;;;;;;;;;;4309216;33;20063;-75
2021/06/21 09:42:53;;;;;;;17.62;4.50;;;;;;;;;;4313994;33;20138;-75
2021/06/21 09:45:19;;;;;;;21.58;4.72;;;;;;;;;;4308607;33;20841;-75
2021/06/21 09:47:45;;;;;;;19.75;4.18;;;;;;;;;;4308604;33;20043;-74
2021/06/21 09:50:13;;;;;;;18.50;4.55;;;;;;;;;;4321962;33;20066;-75
2021/06/21 09:52:44;;;;;;;17.17;4.65;;;;;;;;;;4322003;33;20061;-75
2021/06/21 09:55:18;;;;;;;19.98;5.05;;;;;;;;;;4308103;33;20036;-75
2021/06/21 09:57:45;;;;;;;14.07;4.53;;;;;;;;;;4315536;33;20036;-75
2021/06/21 10:00:13;;;;;;;18.92;4.35;;;;;;;;;;4322703;33;20261;-75
2021/06/21 10:02:40;;;;;;;20.23;5.30;;;;;;;;;;4322214;33;20036;-74
2021/06/21 10:05:07;;;;;;;18.35;4.97;;;;;;;;;;4320986;33;20028;-74
2021/06/21 10:07:35;;;;;;;14.80;5.00;;;;;;;;;;4321719;33;20044;-74
2021/06/21 10:10:05;;;;;;;21.35;5.82;;;;;;;;;;4321137;33;20036;-74
2021/06/21 10:12:31;;;;;;;29.12;5.95;;;;;;;;;;4306053;33;20524;-74
2021/06/21 10:14:58;;;;;;;20.80;4.70;;;;;;;;;;4307760;33;20373;-73
2021/06/21 10:17:24;;;;;;;19.95;5.45;;;;;;;;;;4319923;33;20102;-74
2021/06/21 10:19:51;;;;;;;14.85;5.15;;;;;;;;;;4307374;33;20043;-73
2021/06/21 10:22:20;;;;;;;22.27;5.55;;;;;;;;;;4321809;33;20067;-74
2021/06/21 10:24:48;;;;;;;22.62;5.40;;;;;;;;;;4321418;33;20048;-74
2021/06/21 10:27:16;;;;;;;15.60;5.07;;;;;;;;;;4321011;33;20032;-73
2021/06/21 10:29:42;;;;;;;21.27;6.03;;;;;;;;;;4321260;33;20027;-76
2021/06/21 10:32:09;;;;;;;17.77;5.50;;;;;;;;;;4320310;33;20054;-75
2021/06/21 10:34:36;;;;;;;20.15;5.05;;;;;;;;;;4321031;33;20079;-74
2021/06/21 10:37:02;;;;;;;19.42;5.55;;;;;;;;;;4321127;33;20409;-76
2021/06/21 10:39:37;;;;;;;21.85;6.25;;;;;;;;;;4321204;33;20098;-77
2021/06/21 10:42:07;;;;;;;27.20;6.50;;;;;;;;;;4321309;33;20066;-75
2021/06/21 10:44:39;;;;;;;18.25;4.95;;;;;;;;;;4321123;33;20074;-73
2021/06/21 10:47:24;;;;;;;17.60;4.18;;;;;;;;;;4319623;33;20042;-76
2021/06/21 10:50:13;;;;;;;17.15;4.85;;;;;;;;;;4321031;33;20024;-74
2021/06/21 10:52:41;;;;;;;19.75;5.10;;;;;;;;;;4313497;33;20062;-76
2021/06/21 10:55:33;;;;;;;20.12;4.65;;;;;;;;;;4321242;33;20067;-75
2021/06/21 10:58:00;;;;;;;18.45;4.97;;;;;;;;;;4311743;33;20079;-79
2021/06/21 11:00:34;;;;;;;26.30;5.32;;;;;;;;;;4321043;33;20054;-73
2021/06/21 11:03:01;;;;;;;18.52;4.37;;;;;;;;;;4320908;33;20028;-76
2021/06/21 11:05:36;;;;;;;15.25;4.62;;;;;;;;;;4320955;33;20063;-75
2021/06/21 11:08:31;;;;;;;13.80;4.30;;;;;;;;;;4320096;33;20409;-76
2021/06/21 11:10:59;;;;;;;24.37;4.40;;;;;;;;;;4305264;33;20113;-76
2021/06/21 11:13:34;;;;;;;21.27;4.85;;;;;;;;;;4314641;33;20511;-77
2021/06/21 11:16:17;;;;;;;16.25;4.50;;;;;;;;;;4302278;33;20614;-78
2021/06/21 11:18:43;;;;;;;16.58;4.07;;;;;;;;;;4302023;33;20032;-76
2021/06/21 11:21:17;;;;;;;25.55;5.18;;;;;;;;;;4316504;33;20027;-77
2021/06/21 11:23:46;;;;;;;17.27;4.00;;;;;;;;;;4318074;33;20464;-78
2021/06/21 11:26:12;;;;;;;18.83;4.65;;;;;;;;;;4309061;33;20036;-76
2021/06/21 11:28:40;;;;;;;19.80;4.62;;;;;;;;;;4321602;33;20079;-76
2021/06/21 11:31:19;;;;;;;15.05;4.45;;;;;;;;;;4322089;33;20094;-75
2021/06/21 11:33:51;;;;;;;19.15;4.68;;;;;;;;;;4319642;33;20090;-75
2021/06/21 11:36:36;;;;;;;21.77;4.70;;;;;;;;;;4320868;33;20068;-76
2021/06/21 11:39:19;;;;;;;20.88;4.78;;;;;;;;;;4317531;33;20040;-75
2021/06/21 11:42:11;;;;;;;20.92;5.28;;;;;;;;;;4303410;33;20028;-76
2021/06/21 11:44:38;;;;;;;18.60;5.05;;;;;;;;;;4315481;33;20601;-76
2021/06/21 11:47:23;;;;;;;15.35;4.40;;;;;;;;;;4320093;33;20476;-75
2021/06/21 11:49:50;;;;;;;11.35;4.00;;;;;;;;;;4310438;33;20032;-75
2021/06/21 11:52:18;;;;;;;22.42;4.62;;;;;;;;;;4310464;33;20031;-75
2021/06/21 11:54:44;;;;;;;16.52;4.45;;;;;;;;;;4320251;33;20032;-80
2021/06/21 11:57:11;;;;;;;13.50;3.97;;;;;;;;;;4320138;33;20032;-76
2021/06/21 11:59:39;;;;;;;19.40;4.32;;;;;;;;;;4320105;33;20098;-75
2021/06/21 12:02:07;;;;;;;19.92;4.37;;;;;;;;;;4319074;33;20073;-75
2021/06/21 12:04:33;;;;;;;13.15;3.78;;;;;;;;;;4305186;33;20172;-76
2021/06/21 12:06:59;;;;;;;17.52;4.47;;;;;;;;;;4306031;33;20071;-75
2021/06/21 12:09:26;;;;;;;21.87;4.45;;;;;;;;;;4308131;33;20155;-75
2021/06/21 12:11:52;;;;;;;23.42;4.68;;;;;;;;;;4303609;33;20032;-75
2021/06/21 12:14:26;;;;;;;17.75;4.30;;;;;;;;;;4314257;33;20032;-75
2021/06/21 12:17:01;;;;;;;16.37;4.25;;;;;;;;;;4312457;33;20033;-75
2021/06/21 12:19:27;;;;;;;22.45;4.75;;;;;;;;;;4304724;33;20106;-76
2021/06/21 12:21:54;;;;;;;17.92;4.10;;;;;;;;;;4304274;33;20413;-76
2021/06/21 12:24:23;;;;;;;25.45;4.55;;;;;;;;;;4307436;33;20048;-76
2021/06/21 12:26:53;;;;;;;21.33;5.28;;;;;;;;;;4307543;33;20024;-77
2021/06/21 12:29:20;;;;;;;25.15;4.53;;;;;;;;;;4306238;33;20024;-76
2021/06/21 12:31:53;;;;;;;15.85;3.75;;;;;;;;;;4313958;33;20102;-76
2021/06/21 12:34:35;;;;;;;16.80;4.47;;;;;;;;;;4309354;33;20745;-76
2021/06/21 12:37:10;;;;;;;22.15;4.18;;;;;;;;;;4305885;33;20472;-76
2021/06/21 12:39:36;;;;;;;20.95;5.07;;;;;;;;;;4310574;33;20108;-76
2021/06/21 12:42:08;;;;;;;22.27;5.07;;;;;;;;;;4306485;33;20032;-76
2021/06/21 12:44:34;;;;;;;22.85;4.75;;;;;;;;;;4304413;33;20407;-76
2021/06/21 12:47:13;;;;;;;23.42;5.57;;;;;;;;;;4290021;33;20083;-77
2021/06/21 12:49:39;;;;;;;25.20;5.47;;;;;;;;;;4310221;33;20090;-76
2021/06/21 12:52:05;;;;;;;27.27;5.40;;;;;;;;;;4304556;33;20722;-76
2021/06/21 12:54:34;;;;;;;20.85;5.28;;;;;;;;;;4305060;33;20044;-76
2021/06/21 12:57:00;;;;;;;20.73;5.45;;;;;;;;;;4306167;33;20364;-76
2021/06/21 12:59:26;;;;;;;17.48;5.37;;;;;;;;;;4305684;33;20029;-76
2021/06/21 13:01:53;;;;;;;25.10;5.75;;;;;;;;;;4305841;33;20054;-76
2021/06/21 13:04:19;;;;;;;15.70;4.70;;;;;;;;;;4318064;33;20036;-76
2021/06/21 13:06:47;;;;;;;24.85;5.57;;;;;;;;;;4319071;33;20036;-75
2021/06/21 13:09:16;;;;;;;18.00;4.93;;;;;;;;;;4317796;33;20062;-77
2021/06/21 13:11:49;;;;;;;22.42;5.60;;;;;;;;;;4319136;33;20031;-76
2021/06/21 13:14:16;;;;;;;26.35;5.65;;;;;;;;;;4319005;33;20055;-76
2021/06/21 13:16:42;;;;;;;21.70;5.05;;;;;;;;;;4305555;33;20149;-76
2021/06/21 13:19:16;;;;;;;17.67;5.70;;;;;;;;;;4318087;33;20060;-77
2021/06/21 13:21:50;;;;;;;20.48;5.10;;;;;;;;;;4318890;33;20059;-76
2021/06/21 13:24:36;;;;;;;17.42;5.32;;;;;;;;;;4319219;33;20032;-76
2021/06/21 13:27:03;;;;;;;30.50;6.20;;;;;;;;;;4311034;33;20066;-75
2021/06/21 13:29:30;;;;;;;15.27;5.12;;;;;;;;;;4322457;33;20055;-76
2021/06/21 13:31:58;;;;;;;19.15;5.90;;;;;;;;;;4321797;33;20054;-76
2021/06/21 13:34:41;;;;;;;22.35;5.45;;;;;;;;;;4320947;33;20032;-74
2021/06/21 13:37:08;;;;;;;17.15;5.55;;;;;;;;;;4305043;33;20067;-73
2021/06/21 13:39:36;;;;;;;24.63;5.87;;;;;;;;;;4318955;33;20060;-73
2021/06/21 13:42:04;;;;;;;15.93;4.93;;;;;;;;;;4319102;33;20322;-73
2021/06/21 13:44:30;;;;;;;17.02;5.20;;;;;;;;;;4318740;33;20439;-74
2021/06/21 13:46:56;;;;;;;18.75;5.20;;;;;;;;;;4318288;33;20063;-73
2021/06/21 13:49:23;;;;;;;24.23;5.20;;;;;;;;;;4319686;33;20062;-74
2021/06/21 13:52:08;;;;;;;23.48;5.45;;;;;;;;;;4319538;33;20091;-74
2021/06/21 13:54:35;;;;;;;16.42;4.57;;;;;;;;;;4319147;33;20040;-73
2021/06/21 13:57:09;;;;;;;19.50;5.97;;;;;;;;;;4318593;33;20048;-73
2021/06/21 13:59:45;;;;;;;21.77;6.30;;;;;;;;;;4317410;33;20059;-72
2021/06/21 14:02:11;;;;;;;18.45;5.60;;;;;;;;;;4318813;33;20032;-74
2021/06/21 14:04:37;;;;;;;16.62;5.50;;;;;;;;;;4318675;33;20071;-74
2021/06/21 14:07:04;;;;;;;15.90;5.70;;;;;;;;;;4318762;33;20040;-74
2021/06/21 14:09:31;;;;;;;15.40;5.37;;;;;;;;;;4320730;33;20113;-73
2021/06/21 14:11:57;;;;;;;25.80;6.60;;;;;;;;;;4320314;33;20057;-74
2021/06/21 14:14:23;;;;;;;21.30;5.55;;;;;;;;;;4320837;33;20534;-73
2021/06/21 14:16:50;;;;;;;17.52;5.30;;;;;;;;;;4312292;33;20020;-74
2021/06/21 14:19:17;;;;;;;16.10;5.30;;;;;;;;;;4320338;33;20058;-73
2021/06/21 14:21:43;;;;;;;17.40;5.47;;;;;;;;;;4321148;33;20070;-72
2021/06/21 14:24:12;;;;;;;21.95;6.12;;;;;;;;;;4321020;33;20029;-73
2021/06/21 14:26:38;;;;;;;18.58;5.32;;;;;;;;;;4321179;33;20057;-73
2021/06/21 14:29:05;;;;;;;20.02;5.78;;;;;;;;;;4321075;33;20040;-72
2021/06/21 14:31:33;;;;;;;19.83;5.28;;;;;;;;;;4319970;33;20024;-72
2021/06/21 14:34:00;;;;;;;20.00;5.60;;;;;;;;;;4307328;33;20350;-72
2021/06/21 14:36:27;;;;;;;15.15;5.25;;;;;;;;;;4320852;33;20401;-75
2021/06/21 14:38:53;;;;;;;35.13;7.07;;;;;;;;;;4321110;33;20173;-73